Time;durP1;ratioP1;P1;durP2;ratioP2;P2;SDS_P1;SDS_P2;PMS_P1;PMS_P2;Temp;Humidity;BMP_temperature;BMP_pressure;BME280_temperature;BME280_humidity;BME280_pressure;Samples;Min_cycle;Max_cycle;Signal;HPM_P1;HPM_P2
2021/12/07 00:02:12;;;;;;;63.80;27.27;;;1.90;93.10;;;;;;5073321;28;20036;-75
2021/12/07 00:04:40;;;;;;;60.75;26.88;;;2.00;93.20;;;;;;5073497;28;20017;-74
2021/12/07 00:07:06;;;;;;;59.45;26.55;;;1.90;93.20;;;;;;5068891;28;20036;-74
2021/12/07 00:09:35;;;;;;;57.10;25.30;;;1.90;93.30;;;;;;5055281;28;20013;-75
2021/12/07 00:12:09;;;;;;;51.38;25.40;;;2.00;93.20;;;;;;5071901;28;20146;-75
2021/12/07 00:14:41;;;;;;;62.55;27.38;;;2.00;93.20;;;;;;5075427;28;20381;-75
2021/12/07 00:17:09;;;;;;;56.00;24.67;;;2.00;93.20;;;;;;5076263;28;20116;-75
2021/12/07 00:19:37;;;;;;;54.85;25.58;;;2.00;93.00;;;;;;5076564;28;20514;-75
2021/12/07 00:22:12;;;;;;;55.67;25.15;;;2.00;92.90;;;;;;5076905;28;20032;-75
2021/12/07 00:24:40;;;;;;;69.82;29.10;;;2.00;93.00;;;;;;5076605;28;20044;-76
2021/12/07 00:27:07;;;;;;;78.13;29.67;;;1.90;92.90;;;;;;5077452;28;20048;-75
2021/12/07 00:29:33;;;;;;;77.72;28.48;;;1.90;92.90;;;;;;5076215;28;20150;-75
2021/12/07 00:37:35;;;;;;;67.28;28.65;;;1.90;92.90;;;;;;5077163;28;20048;-75
2021/12/07 00:40:03;;;;;;;61.38;27.70;;;1.90;92.90;;;;;;5077031;28;20090;-76
2021/12/07 00:42:31;;;;;;;61.83;27.55;;;1.90;92.90;;;;;;5075091;28;20051;-75
2021/12/07 00:45:00;;;;;;;73.13;29.55;;;1.80;92.80;;;;;;5075098;28;20028;-76
2021/12/07 00:47:28;;;;;;;66.85;28.17;;;1.80;92.90;;;;;;5075311;28;20035;-75
2021/12/07 00:49:53;;;;;;;73.25;30.13;;;1.80;93.10;;;;;;5075141;28;20507;-76
2021/12/07 00:52:21;;;;;;;71.13;31.25;;;1.80;93.20;;;;;;5075120;28;20115;-76
2021/12/07 00:54:48;;;;;;;62.45;26.92;;;1.80;93.40;;;;;;5076499;28;20025;-76
2021/12/07 00:57:17;;;;;;;67.78;28.27;;;1.80;93.40;;;;;;5076368;28;20381;-75
2021/12/07 00:59:45;;;;;;;72.13;30.63;;;1.80;93.50;;;;;;5076563;28;20073;-76
2021/12/07 01:02:13;;;;;;;70.72;30.02;;;1.80;93.60;;;;;;5076205;28;20024;-76
2021/12/07 01:04:50;;;;;;;81.18;31.98;;;1.80;93.50;;;;;;5076463;28;20031;-76
2021/12/07 01:27:03;;;;;;;64.65;27.65;;;1.70;94.10;;;;;;5074553;28;20511;-76
2021/12/07 01:29:30;;;;;;;58.88;27.17;;;1.70;94.10;;;;;;5075964;28;20055;-76
2021/12/07 01:32:29;;;;;;;62.25;28.20;;;1.70;94.00;;;;;;5074642;28;20081;-76
2021/12/07 01:51:41;;;;;;;65.55;29.35;;;1.70;93.30;;;;;;5075691;28;20070;-75
2021/12/07 01:59:42;;;;;;;63.28;28.10;;;1.70;93.60;;;;;;5075226;28;20058;-76
2021/12/07 02:02:29;;;;;;;64.95;28.30;;;1.80;93.80;;;;;;5073870;28;20028;-76
2021/12/07 02:04:56;;;;;;;65.60;29.20;;;1.80;93.70;;;;;;5074937;28;20031;-76
2021/12/07 02:07:27;;;;;;;63.17;28.40;;;1.80;93.70;;;;;;5075098;28;20381;-76
2021/12/07 02:09:57;;;;;;;65.93;27.63;;;1.80;93.70;;;;;;5057038;28;20086;-76
2021/12/07 02:12:25;;;;;;;67.65;29.45;;;1.80;93.70;;;;;;5075369;28;20032;-76
2021/12/07 02:14:51;;;;;;;70.00;29.58;;;1.80;93.70;;;;;;5074853;28;20533;-76
2021/12/07 02:17:23;;;;;;;70.20;29.45;;;1.80;93.70;;;;;;5075290;28;20033;-76
2021/12/07 02:19:49;;;;;;;;;;;1.90;93.70;;;;;;5074427;28;20036;-76
2021/12/07 02:22:19;;;;;;;69.13;27.85;;;1.80;93.50;;;;;;5074763;28;19935;-76
2021/12/07 02:24:47;;;;;;;75.63;32.78;;;1.80;93.90;;;;;;5074908;28;20038;-76
2021/12/07 02:27:14;;;;;;;67.72;28.35;;;1.80;93.60;;;;;;5073439;28;20080;-76
2021/12/07 02:29:47;;;;;;;66.55;28.65;;;1.80;93.80;;;;;;5073358;28;20484;-76
2021/12/07 02:32:15;;;;;;;72.65;27.13;;;1.90;93.80;;;;;;5074497;28;20024;-77
2021/12/07 02:34:53;;;;;;;73.22;29.40;;;1.80;93.60;;;;;;5073347;28;20029;-75
2021/12/07 02:37:47;;;;;;;75.45;30.77;;;1.80;93.50;;;;;;5074502;28;20477;-76
2021/12/07 02:40:17;;;;;;;68.90;28.48;;;1.80;93.60;;;;;;5073839;28;20047;-75
2021/12/07 02:42:48;;;;;;;74.90;29.77;;;1.80;93.70;;;;;;5075175;28;20044;-75
2021/12/07 02:45:14;;;;;;;74.05;30.10;;;1.80;93.70;;;;;;5076557;28;20028;-76
2021/12/07 02:47:45;;;;;;;72.53;29.67;;;1.80;93.60;;;;;;5060158;28;20025;-76
2021/12/07 02:50:13;;;;;;;69.57;28.23;;;1.80;93.60;;;;;;5059385;28;20036;-76
2021/12/07 02:52:39;;;;;;;75.70;30.50;;;1.80;93.60;;;;;;5074910;28;20149;-75
2021/12/07 02:55:06;;;;;;;79.80;31.65;;;1.80;93.60;;;;;;5074420;28;20078;-75
2021/12/07 02:57:34;;;;;;;82.80;31.98;;;1.80;93.80;;;;;;5070251;28;20020;-75
2021/12/07 03:00:16;;;;;;;71.35;30.10;;;1.80;93.90;;;;;;5086628;28;20016;-76
2021/12/07 03:02:52;;;;;;;72.68;30.35;;;1.80;93.80;;;;;;5094074;28;20113;-76
2021/12/07 03:27:30;;;;;;;79.43;31.55;;;1.80;94.10;;;;;;5094138;28;20035;-78
2021/12/07 03:30:07;;;;;;;82.80;34.05;;;1.70;94.00;;;;;;5075753;28;20032;-77
2021/12/07 03:32:35;;;;;;;86.70;33.67;;;1.70;93.90;;;;;;5092535;28;20496;-78
2021/12/07 03:35:03;;;;;;;82.05;32.13;;;1.70;94.10;;;;;;5093785;28;20028;-78
2021/12/07 03:37:30;;;;;;;75.55;32.72;;;1.70;94.10;;;;;;5093722;28;20178;-77
2021/12/07 03:39:59;;;;;;;79.32;35.20;;;1.70;94.10;;;;;;5093980;28;20031;-76
2021/12/07 03:42:27;;;;;;;84.43;33.95;;;1.70;94.30;;;;;;5093268;28;20075;-76
2021/12/07 03:44:53;;;;;;;85.30;33.75;;;1.80;94.40;;;;;;5093752;28;20020;-76
2021/12/07 03:47:21;;;;;;;85.70;33.25;;;1.80;94.80;;;;;;5093702;28;20020;-76
2021/12/07 03:49:48;;;;;;;86.82;33.47;;;1.80;94.20;;;;;;5075356;28;20031;-76
2021/12/07 03:52:15;;;;;;;79.85;34.75;;;1.80;94.10;;;;;;5092370;28;20036;-76
2021/12/07 03:54:42;;;;;;;84.50;34.90;;;1.80;94.10;;;;;;5092690;28;20481;-76
2021/12/07 03:57:08;;;;;;;85.90;35.65;;;1.80;94.30;;;;;;5093494;28;20012;-76
2021/12/07 03:59:36;;;;;;;92.63;35.60;;;1.80;94.50;;;;;;5092179;28;20028;-76
2021/12/07 04:02:03;;;;;;;85.45;32.47;;;1.80;94.10;;;;;;5093434;28;20085;-76
2021/12/07 04:04:30;;;;;;;91.90;35.03;;;1.90;94.30;;;;;;5092247;28;20095;-76
2021/12/07 04:06:58;;;;;;;88.70;32.85;;;1.90;94.30;;;;;;5092169;28;20020;-76
2021/12/07 04:09:25;;;;;;;79.28;31.63;;;1.80;93.80;;;;;;5093546;28;20385;-76
2021/12/07 04:11:54;;;;;;;86.32;32.28;;;1.80;93.80;;;;;;5093346;28;20373;-76
2021/12/07 04:14:21;;;;;;;84.22;31.73;;;1.80;93.90;;;;;;5093368;28;20054;-76
2021/12/07 04:16:47;;;;;;;84.72;31.10;;;1.80;93.70;;;;;;5092118;28;20098;-76
2021/12/07 04:19:13;;;;;;;80.18;32.30;;;1.70;93.70;;;;;;5093737;28;20553;-76
2021/12/07 04:21:39;;;;;;;87.22;34.50;;;1.70;93.90;;;;;;5092370;28;20114;-76
2021/12/07 04:24:06;;;;;;;81.07;30.65;;;1.70;93.90;;;;;;5090553;28;20034;-76
2021/12/07 04:26:34;;;;;;;72.55;29.23;;;1.70;94.00;;;;;;5092839;28;20081;-76
2021/12/07 04:29:02;;;;;;;70.75;28.67;;;1.70;93.90;;;;;;5075340;28;20477;-76
2021/12/07 04:31:28;;;;;;;68.97;29.23;;;1.70;93.90;;;;;;5093633;28;20062;-76
2021/12/07 04:33:54;;;;;;;78.40;29.17;;;1.70;93.90;;;;;;5092332;28;20063;-77
2021/12/07 04:36:22;;;;;;;80.15;31.13;;;1.70;93.90;;;;;;5093120;28;20016;-75
2021/12/07 04:38:53;;;;;;;78.13;31.73;;;1.70;93.80;;;;;;5092011;28;20122;-76
2021/12/07 04:41:21;;;;;;;68.45;31.13;;;1.70;93.90;;;;;;5074845;28;20572;-76
2021/12/07 04:43:48;;;;;;;69.35;29.95;;;1.60;93.90;;;;;;5093028;28;20028;-76
2021/12/07 04:59:44;;;;;;;79.68;30.90;;;1.60;94.00;;;;;;5093243;28;20067;-76
2021/12/07 05:02:11;;;;;;;77.72;31.70;;;1.60;94.10;;;;;;5095546;28;20461;-76
2021/12/07 05:04:37;;;;;;;79.53;32.30;;;1.70;94.00;;;;;;5096730;28;20062;-76
2021/12/07 05:07:18;;;;;;;83.15;34.08;;;1.60;93.90;;;;;;5078463;28;20084;-76
2021/12/07 05:12:29;;;;;;;80.25;31.38;;;1.60;94.00;;;;;;5096977;28;20036;-76
2021/12/07 05:15:04;;;;;;;78.97;30.83;;;1.70;94.10;;;;;;5095291;28;20039;-76
2021/12/07 05:39:16;;;;;;;86.47;32.15;;;1.60;94.20;;;;;;5095925;28;20404;-76
2021/12/07 05:41:43;;;;;;;72.10;30.75;;;1.60;94.70;;;;;;5095609;28;20481;-77
2021/12/07 05:44:10;;;;;;;76.50;30.95;;;1.60;94.30;;;;;;5096036;28;20028;-76
2021/12/07 05:46:37;;;;;;;71.45;29.70;;;1.60;94.30;;;;;;5095586;28;20044;-76
2021/12/07 05:49:04;;;;;;;79.05;32.45;;;1.60;94.30;;;;;;5094245;28;20484;-75
2021/12/07 05:51:30;;;;;;;77.15;30.92;;;1.60;94.30;;;;;;5095939;28;20032;-75
2021/12/07 05:53:58;;;;;;;84.88;33.70;;;1.60;94.30;;;;;;5094215;28;20020;-77
2021/12/07 05:56:25;;;;;;;105.55;35.80;;;1.60;94.40;;;;;;5095335;28;20158;-76
2021/12/07 05:58:52;;;;;;;88.47;34.45;;;1.60;94.50;;;;;;5095381;28;20081;-77
2021/12/07 06:01:20;;;;;;;93.32;32.45;;;1.60;94.60;;;;;;5090925;28;20139;-77
2021/12/07 06:03:48;;;;;;;88.07;36.05;;;1.60;94.60;;;;;;5095028;28;20016;-76
2021/12/07 06:06:16;;;;;;;87.05;32.85;;;1.60;94.70;;;;;;5095134;28;20054;-74
2021/12/07 06:08:43;;;;;;;104.85;34.55;;;1.60;94.70;;;;;;5094052;28;20060;-73
2021/12/07 06:11:09;;;;;;;98.03;34.33;;;1.60;94.70;;;;;;5094520;28;20024;-73
2021/12/07 06:13:51;;;;;;;90.75;32.92;;;1.60;95.00;;;;;;5076509;28;20031;-74
2021/12/07 06:16:18;;;;;;;96.00;32.97;;;1.60;94.80;;;;;;5094938;28;20032;-75
2021/12/07 06:18:52;;;;;;;89.07;33.40;;;1.60;95.20;;;;;;5094972;28;20024;-79
2021/12/07 06:21:18;;;;;;;89.32;32.05;;;1.60;94.80;;;;;;5094762;28;20031;-78
2021/12/07 06:23:44;;;;;;;93.30;35.97;;;1.60;94.90;;;;;;5094729;28;20016;-77
2021/12/07 06:26:12;;;;;;;87.05;32.00;;;1.60;94.90;;;;;;5093256;28;20020;-74
2021/12/07 06:28:40;;;;;;;99.85;34.13;;;1.60;94.60;;;;;;5094473;28;20016;-74
2021/12/07 06:31:07;;;;;;;91.35;32.10;;;1.60;94.60;;;;;;5092862;28;20035;-75
2021/12/07 06:33:33;;;;;;;89.10;32.58;;;1.60;94.70;;;;;;5075130;28;20032;-74
2021/12/07 06:36:06;;;;;;;92.43;31.73;;;1.60;94.80;;;;;;5073806;28;20067;-74
2021/12/07 06:38:34;;;;;;;85.68;32.72;;;1.50;95.00;;;;;;5073725;28;20031;-74
2021/12/07 06:41:04;;;;;;;92.40;34.53;;;1.60;95.20;;;;;;5056324;28;20127;-75
2021/12/07 06:43:32;;;;;;;93.65;33.83;;;1.70;95.40;;;;;;5072943;28;20040;-75
2021/12/07 06:45:59;;;;;;;85.10;33.13;;;1.70;95.40;;;;;;5072855;28;20025;-75
2021/12/07 06:48:25;;;;;;;109.50;38.92;;;1.80;94.80;;;;;;5072617;28;20469;-75
2021/12/07 06:50:57;;;;;;;91.10;33.38;;;1.80;94.50;;;;;;5072602;28;20067;-75
2021/12/07 06:53:35;;;;;;;99.07;35.05;;;1.90;94.40;;;;;;5072750;28;20058;-77
2021/12/07 06:56:02;;;;;;;97.28;33.63;;;1.90;94.40;;;;;;5071649;28;20071;-74
2021/12/07 06:58:30;;;;;;;104.93;35.40;;;2.00;94.50;;;;;;5071182;28;20082;-75
2021/12/07 07:01:06;;;;;;;94.72;36.03;;;2.10;94.50;;;;;;5072425;28;20036;-73
2021/12/07 07:03:36;;;;;;;100.93;36.63;;;2.20;94.20;;;;;;5072335;28;20378;-74
2021/12/07 07:06:03;;;;;;;103.80;35.10;;;2.20;93.40;;;;;;5072583;28;20039;-73
2021/12/07 07:08:32;;;;;;;93.88;32.15;;;2.10;93.90;;;;;;5071434;28;20024;-74
2021/12/07 07:10:59;;;;;;;85.50;31.73;;;2.10;93.70;;;;;;5072342;28;20066;-74
2021/12/07 07:13:27;;;;;;;96.72;35.22;;;2.20;93.50;;;;;;5071294;28;20032;-75
2021/12/07 07:15:53;;;;;;;91.40;33.75;;;2.20;93.60;;;;;;5073591;28;20040;-73
2021/12/07 07:18:19;;;;;;;90.82;35.30;;;2.20;93.70;;;;;;5072414;28;20470;-74
2021/12/07 07:20:46;;;;;;;103.90;34.50;;;2.20;93.80;;;;;;5072411;28;20066;-74
2021/12/07 07:23:17;;;;;;;93.50;36.08;;;2.30;93.60;;;;;;5073218;28;20064;-74
2021/12/07 07:25:44;;;;;;;100.15;34.10;;;2.40;93.40;;;;;;5071307;28;20519;-78
2021/12/07 07:28:11;;;;;;;96.07;33.38;;;2.30;93.00;;;;;;5084123;28;20066;-76
2021/12/07 07:30:37;;;;;;;93.68;34.67;;;2.30;92.90;;;;;;5086565;28;20073;-75
2021/12/07 07:33:06;;;;;;;110.68;35.88;;;2.30;93.20;;;;;;5074997;28;20028;-76
2021/12/07 07:35:35;;;;;;;94.25;35.85;;;2.30;93.30;;;;;;5071001;28;20043;-74
2021/12/07 07:38:04;;;;;;;94.07;32.50;;;2.40;93.40;;;;;;5073040;28;20092;-75
2021/12/07 07:40:29;;;;;;;104.55;35.55;;;2.40;93.50;;;;;;5071582;28;20123;-74
2021/12/07 07:42:57;;;;;;;102.88;34.53;;;2.40;93.40;;;;;;5071465;28;20456;-75
2021/12/07 07:45:24;;;;;;;91.15;34.92;;;2.50;93.10;;;;;;5072873;28;20062;-75
2021/12/07 07:47:52;;;;;;;99.47;37.22;;;2.40;92.90;;;;;;5071917;28;20078;-75
2021/12/07 07:50:21;;;;;;;95.30;35.35;;;2.40;92.90;;;;;;5072156;28;20389;-77
2021/12/07 07:52:47;;;;;;;102.75;36.70;;;2.30;93.00;;;;;;5071522;28;20428;-78
2021/12/07 07:55:27;;;;;;;118.13;37.78;;;2.30;93.20;;;;;;5054863;28;20039;-78
2021/12/07 07:57:55;;;;;;;100.72;34.63;;;2.30;93.30;;;;;;5072727;28;20017;-77
2021/12/07 08:00:30;;;;;;;95.35;32.83;;;2.30;93.30;;;;;;5072638;28;20469;-76
2021/12/07 08:02:57;;;;;;;96.85;36.38;;;2.20;93.10;;;;;;5071465;28;20016;-76
2021/12/07 08:05:24;;;;;;;99.13;35.13;;;2.20;93.20;;;;;;5081196;28;20498;-75
2021/12/07 08:07:51;;;;;;;98.45;34.58;;;2.10;93.40;;;;;;5112093;28;20027;-78
2021/12/07 08:10:20;;;;;;;93.53;31.67;;;2.10;93.60;;;;;;5113267;28;20051;-73
2021/12/07 08:12:49;;;;;;;84.60;33.20;;;2.10;93.80;;;;;;5111896;28;20043;-78
2021/12/07 08:15:31;;;;;;;80.35;31.27;;;2.10;93.70;;;;;;5111820;28;20043;-78
2021/12/07 08:17:57;;;;;;;98.45;34.25;;;2.10;93.70;;;;;;5113384;28;20031;-77
2021/12/07 08:20:24;;;;;;;80.22;31.35;;;2.10;93.60;;;;;;5111991;28;20024;-77
2021/12/07 08:22:52;;;;;;;68.38;27.30;;;2.10;93.50;;;;;;5111795;28;20019;-79
2021/12/07 08:25:18;;;;;;;78.22;30.50;;;2.10;93.30;;;;;;5113214;28;20034;-78
2021/12/07 08:27:59;;;;;;;74.13;29.77;;;2.00;93.30;;;;;;5112103;28;20024;-78
2021/12/07 08:30:26;;;;;;;73.53;30.08;;;2.00;93.50;;;;;;5113483;28;20031;-76
2021/12/07 08:32:53;;;;;;;72.60;28.00;;;2.00;93.90;;;;;;5093276;28;20477;-77
2021/12/07 08:35:20;;;;;;;76.82;30.85;;;2.10;94.00;;;;;;5115522;28;20353;-77
2021/12/07 08:37:48;;;;;;;91.63;30.95;;;2.10;93.80;;;;;;5117384;28;20115;-77
2021/12/07 08:40:19;;;;;;;74.65;29.35;;;2.20;93.60;;;;;;5099935;28;20031;-76
2021/12/07 08:42:54;;;;;;;81.50;28.75;;;2.20;93.60;;;;;;5101177;28;20044;-77
2021/12/07 08:45:21;;;;;;;77.32;28.05;;;2.10;92.90;;;;;;5117406;28;20433;-77
2021/12/07 08:47:55;;;;;;;76.03;29.77;;;2.00;93.10;;;;;;5115734;28;20133;-78
2021/12/07 08:50:26;;;;;;;83.15;29.92;;;1.90;93.40;;;;;;5117167;27;20042;-76
2021/12/07 08:52:56;;;;;;;76.43;29.63;;;1.80;93.80;;;;;;5116240;28;20084;-73
2021/12/07 09:01:13;;;;;;;68.40;27.33;;;2.10;93.80;;;;;;5117444;28;20070;-77
2021/12/07 09:03:42;;;;;;;81.35;28.85;;;2.20;93.50;;;;;;5115481;28;20023;-76
2021/12/07 09:06:16;;;;;;;61.97;28.65;;;2.20;93.10;;;;;;5116718;28;20041;-76
2021/12/07 09:08:44;;;;;;;75.75;31.35;;;2.30;92.70;;;;;;5115223;28;20479;-74
2021/12/07 09:11:12;;;;;;;72.72;28.48;;;2.30;92.70;;;;;;5106590;28;20028;-75
2021/12/07 09:13:39;;;;;;;70.32;30.48;;;2.30;92.70;;;;;;5095907;28;20039;-75
2021/12/07 09:16:05;;;;;;;61.65;27.48;;;2.20;92.90;;;;;;5094599;28;20112;-74
2021/12/07 09:18:31;;;;;;;69.85;31.40;;;2.30;92.80;;;;;;5096002;28;20060;-76
2021/12/07 09:20:59;;;;;;;71.50;29.95;;;2.30;93.00;;;;;;5077969;28;20452;-75
2021/12/07 09:23:25;;;;;;;71.32;27.92;;;2.30;92.90;;;;;;5094378;28;20024;-77
2021/12/07 09:25:52;;;;;;;67.50;29.27;;;2.40;92.80;;;;;;5094359;28;20020;-76
2021/12/07 09:28:19;;;;;;;70.90;27.83;;;2.50;92.40;;;;;;5094285;28;20055;-80
2021/12/07 09:30:53;;;;;;;68.40;30.15;;;2.60;92.10;;;;;;5076934;28;20032;-79
2021/12/07 09:33:22;;;;;;;73.35;28.25;;;2.60;91.70;;;;;;5078344;28;20040;-80
2021/12/07 09:35:50;;;;;;;65.22;28.70;;;2.60;91.60;;;;;;5095366;28;20023;-78
2021/12/07 09:38:18;;;;;;;72.18;31.00;;;2.70;91.50;;;;;;5094063;28;20035;-74
2021/12/07 09:40:46;;;;;;;72.05;31.13;;;2.70;91.60;;;;;;5095304;28;20077;-77
2021/12/07 09:43:17;;;;;;;71.65;29.65;;;2.70;91.30;;;;;;5094148;28;20390;-75
2021/12/07 09:45:44;;;;;;;72.03;31.90;;;2.70;91.30;;;;;;5094634;28;20013;-77
2021/12/07 09:48:12;;;;;;;75.97;30.42;;;2.70;91.20;;;;;;5093535;28;20150;-79
2021/12/07 09:50:51;;;;;;;77.07;32.17;;;2.80;91.10;;;;;;5094257;28;20016;-79
2021/12/07 09:53:32;;;;;;;80.57;31.70;;;2.70;90.80;;;;;;5094606;28;20341;-77
2021/12/07 09:56:00;;;;;;;65.32;28.35;;;2.70;90.90;;;;;;5094395;28;20480;-78
2021/12/07 09:58:28;;;;;;;76.28;30.73;;;2.70;90.90;;;;;;5097404;28;20031;-80
2021/12/07 10:01:03;;;;;;;72.97;28.42;;;2.70;90.90;;;;;;5095057;28;20032;-78
2021/12/07 10:03:29;;;;;;;75.30;29.30;;;2.70;91.00;;;;;;5096054;28;20093;-79
2021/12/07 10:05:57;;;;;;;79.13;29.75;;;2.70;91.10;;;;;;5094050;28;20408;-77
2021/12/07 10:08:38;;;;;;;84.88;32.30;;;2.80;91.20;;;;;;5094643;28;20110;-77
2021/12/07 10:11:08;;;;;;;81.70;31.97;;;2.90;91.20;;;;;;5094520;28;20024;-78
2021/12/07 10:13:51;;;;;;;74.95;29.65;;;3.00;90.80;;;;;;5093726;28;20266;-77
2021/12/07 10:16:26;;;;;;;72.50;28.88;;;3.20;90.20;;;;;;5095186;28;20508;-77
2021/12/07 10:18:52;;;;;;;83.63;31.45;;;3.20;90.00;;;;;;5094169;28;20047;-81
2021/12/07 10:21:27;;;;;;;75.07;31.00;;;3.20;89.90;;;;;;5092058;28;20028;-82
2021/12/07 10:24:08;;;;;;;88.85;33.88;;;3.20;89.50;;;;;;5092225;28;20104;-79
2021/12/07 10:26:56;;;;;;;89.85;35.72;;;3.20;89.70;;;;;;5093329;28;20488;-79
2021/12/07 10:29:28;;;;;;;93.88;33.13;;;3.20;89.80;;;;;;5093176;28;20032;-78
2021/12/07 10:32:11;;;;;;;89.43;32.75;;;3.10;90.10;;;;;;5092686;28;20032;-80
2021/12/07 10:34:40;;;;;;;89.47;35.20;;;3.10;90.30;;;;;;5093322;28;20544;-76
2021/12/07 10:37:16;;;;;;;94.35;34.95;;;3.10;90.80;;;;;;5076841;28;20038;-78
2021/12/07 10:39:50;;;;;;;96.35;35.20;;;3.20;90.10;;;;;;5094400;28;20481;-79
2021/12/07 10:42:32;;;;;;;85.47;34.30;;;3.10;90.10;;;;;;5092856;28;20048;-79
2021/12/07 10:45:06;;;;;;;;;;;3.10;90.50;;;;;;5093263;28;20377;-81
2021/12/07 10:47:32;;;;;;;87.75;30.73;;;3.00;90.40;;;;;;5094217;28;20082;-78
2021/12/07 10:50:03;;;;;;;90.18;32.72;;;3.00;90.30;;;;;;5093151;28;20114;-81
2021/12/07 10:52:42;;;;;;;96.68;33.70;;;3.00;90.50;;;;;;5076199;28;20036;-78
2021/12/07 10:55:23;;;;;;;86.30;31.35;;;2.90;90.80;;;;;;5075739;28;20040;-78
2021/12/07 10:58:05;;;;;;;81.22;30.23;;;2.90;91.40;;;;;;5092220;28;20023;-80
2021/12/07 11:00:41;;;;;;;82.18;32.08;;;3.00;92.30;;;;;;5092372;28;20446;-78
2021/12/07 11:03:17;;;;;;;101.13;33.28;;;3.10;93.60;;;;;;5093633;28;20091;-80
2021/12/07 11:05:50;;;;;;;73.22;29.48;;;3.20;95.00;;;;;;5075815;28;20031;-77
2021/12/07 11:08:20;;;;;;;77.05;32.17;;;3.20;94.00;;;;;;5092790;28;20070;-76
2021/12/07 11:10:49;;;;;;;84.60;31.08;;;3.20;93.30;;;;;;5094061;28;20021;-74
2021/12/07 11:13:26;;;;;;;78.97;29.27;;;3.20;92.50;;;;;;5094240;28;20491;-77
2021/12/07 11:16:03;;;;;;;90.50;31.42;;;3.10;92.40;;;;;;5093000;28;20028;-75
2021/12/07 11:18:36;;;;;;;92.95;30.73;;;3.10;93.10;;;;;;5092687;28;20103;-76
2021/12/07 11:21:08;;;;;;;65.10;27.88;;;3.10;94.20;;;;;;5076491;28;20099;-75
2021/12/07 11:23:39;;;;;;;84.95;30.98;;;3.10;94.30;;;;;;5093709;28;20028;-76
2021/12/07 11:31:53;;;;;;;70.22;27.80;;;2.80;93.10;;;;;;5094104;28;20047;-79
2021/12/07 11:34:23;;;;;;;64.55;26.48;;;2.60;93.10;;;;;;5093726;28;20020;-74
2021/12/07 11:36:57;;;;;;;76.07;28.27;;;2.50;92.70;;;;;;5093806;28;20380;-78
2021/12/07 11:39:48;;;;;;;78.82;29.40;;;2.50;93.30;;;;;;5092226;28;20384;-76
2021/12/07 11:42:26;;;;;;;74.60;29.73;;;2.50;94.00;;;;;;5093205;28;20036;-77
2021/12/07 11:44:57;;;;;;;83.93;28.95;;;2.40;94.00;;;;;;5091956;28;20016;-80
2021/12/07 11:47:33;;;;;;;108.78;32.72;;;2.40;94.00;;;;;;5075553;28;20035;-71
2021/12/07 11:50:22;;;;;;;77.47;29.25;;;2.40;94.10;;;;;;5091913;28;20016;-78
2021/12/07 11:52:52;;;;;;;131.43;33.90;;;2.40;94.00;;;;;;5077750;28;20032;-77
2021/12/07 11:55:19;;;;;;;70.20;26.85;;;2.30;93.60;;;;;;5091762;28;20056;-80
2021/12/07 11:57:47;;;;;;;67.55;25.35;;;2.30;93.50;;;;;;5091985;28;20028;-77
2021/12/07 12:00:21;;;;;;;68.43;26.52;;;2.30;93.30;;;;;;5091823;28;20093;-79
2021/12/07 12:02:48;;;;;;;69.45;28.58;;;2.30;93.40;;;;;;5089821;28;20101;-78
2021/12/07 12:05:15;;;;;;;67.75;26.42;;;2.20;93.40;;;;;;5075012;28;20024;-79
2021/12/07 12:07:44;;;;;;;70.15;26.95;;;2.20;93.50;;;;;;5091904;28;20128;-76
2021/12/07 12:10:26;;;;;;;60.65;22.95;;;2.30;93.60;;;;;;5093342;28;20077;-73
2021/12/07 12:13:16;;;;;;;57.65;23.90;;;2.20;92.60;;;;;;5096719;28;20046;-74
2021/12/07 12:16:11;;;;;;;62.55;24.75;;;2.20;92.30;;;;;;5097744;28;20095;-73
2021/12/07 12:18:45;;;;;;;64.40;25.05;;;2.20;92.30;;;;;;5096957;28;20127;-75
2021/12/07 12:21:29;;;;;;;65.93;25.33;;;2.20;92.60;;;;;;5100427;28;20050;-74
2021/12/07 12:24:34;;;;;;;66.68;24.45;;;2.30;92.70;;;;;;5099490;28;20055;-76
2021/12/07 12:27:38;;;;;;;59.38;24.45;;;2.30;92.90;;;;;;5097861;28;20024;-75
2021/12/07 12:30:42;;;;;;;65.57;26.48;;;2.40;92.50;;;;;;5097076;28;20047;-75
2021/12/07 12:33:11;;;;;;;63.00;24.50;;;2.50;92.30;;;;;;5095534;28;20054;-72
2021/12/07 12:35:51;;;;;;;56.75;23.10;;;2.60;92.40;;;;;;5096368;28;20067;-75
2021/12/07 12:38:31;;;;;;;62.88;25.02;;;2.60;91.50;;;;;;5078378;28;20052;-74
2021/12/07 12:41:38;;;;;;;69.70;25.77;;;2.60;92.10;;;;;;5096522;28;20031;-78
2021/12/07 12:44:15;;;;;;;62.35;25.50;;;2.60;91.50;;;;;;5095851;28;20392;-72
2021/12/07 12:46:43;;;;;;;61.92;24.60;;;2.60;91.60;;;;;;5096300;28;20096;-74
2021/12/07 12:49:12;;;;;;;58.90;25.23;;;2.60;91.70;;;;;;5096054;28;20035;-76
2021/12/07 12:51:47;;;;;;;55.42;24.77;;;2.60;90.30;;;;;;5095772;28;20023;-76
2021/12/07 12:54:14;;;;;;;51.85;21.88;;;2.60;90.50;;;;;;5094513;28;20348;-75
2021/12/07 12:56:40;;;;;;;61.22;25.83;;;2.60;90.80;;;;;;5094322;28;20012;-74
2021/12/07 12:59:10;;;;;;;56.35;23.10;;;2.60;90.50;;;;;;5096515;28;20089;-73
2021/12/07 13:01:55;;;;;;;53.60;23.15;;;2.60;90.40;;;;;;5095064;28;20035;-74
2021/12/07 13:04:28;;;;;;;59.40;24.25;;;2.60;90.60;;;;;;5096182;28;20030;-73
2021/12/07 13:07:05;;;;;;;57.17;24.58;;;2.70;90.60;;;;;;5095857;28;20065;-74
2021/12/07 13:09:35;;;;;;;53.25;22.50;;;2.70;90.50;;;;;;5095557;28;20444;-72
2021/12/07 13:12:19;;;;;;;62.33;23.40;;;2.80;90.30;;;;;;5095227;28;20024;-73
2021/12/07 13:15:02;;;;;;;54.15;22.55;;;2.80;90.00;;;;;;5095296;28;20385;-71
2021/12/07 13:17:46;;;;;;;49.78;21.85;;;2.80;89.70;;;;;;5095592;28;20055;-73
2021/12/07 13:20:30;;;;;;;68.65;24.67;;;2.80;89.40;;;;;;5096070;28;20349;-73
2021/12/07 13:23:09;;;;;;;51.45;22.35;;;2.80;89.50;;;;;;5094707;28;20028;-72
2021/12/07 13:25:48;;;;;;;52.85;23.23;;;2.80;88.90;;;;;;5096099;28;20035;-74
2021/12/07 13:28:24;;;;;;;50.45;24.48;;;2.70;88.40;;;;;;5095848;28;20044;-77
2021/12/07 13:31:21;;;;;;;58.55;23.67;;;2.60;89.40;;;;;;5096042;28;20027;-75
2021/12/07 13:34:10;;;;;;;50.63;22.48;;;2.60;89.10;;;;;;5096137;28;20017;-74
2021/12/07 13:36:48;;;;;;;42.90;19.73;;;2.50;88.40;;;;;;5094414;28;20056;-75
2021/12/07 13:39:21;;;;;;;43.55;21.05;;;2.50;87.90;;;;;;5095785;28;20020;-75
2021/12/07 13:42:07;;;;;;;44.10;22.27;;;2.40;88.40;;;;;;5095046;28;20044;-74
2021/12/07 13:44:43;;;;;;;45.22;20.42;;;2.40;88.90;;;;;;5095824;28;20016;-75
2021/12/07 13:47:15;;;;;;;48.33;22.02;;;2.40;88.90;;;;;;5095302;28;20054;-76
2021/12/07 13:50:07;;;;;;;50.17;22.63;;;2.30;89.50;;;;;;5094394;28;20052;-76
2021/12/07 13:52:39;;;;;;;47.15;23.73;;;2.30;89.50;;;;;;5094260;28;20362;-73
2021/12/07 13:55:13;;;;;;;42.13;21.50;;;2.20;89.70;;;;;;5094411;28;20034;-74
2021/12/07 13:57:42;;;;;;;49.38;23.98;;;2.30;90.00;;;;;;5094176;28;20028;-76
2021/12/07 14:00:35;;;;;;;44.42;20.50;;;2.20;90.00;;;;;;5077564;28;20020;-77
2021/12/07 14:03:06;;;;;;;50.67;22.65;;;2.20;88.50;;;;;;5094052;28;20055;-77
2021/12/07 14:05:47;;;;;;;48.65;22.00;;;2.10;88.90;;;;;;5094240;28;20050;-73
2021/12/07 14:08:15;;;;;;;52.13;23.23;;;2.10;89.50;;;;;;5095125;28;20016;-75
2021/12/07 14:10:50;;;;;;;54.50;24.65;;;2.10;90.00;;;;;;5093531;28;20411;-77
2021/12/07 14:13:18;;;;;;;55.33;22.92;;;2.10;90.20;;;;;;5094091;28;20066;-76
2021/12/07 14:15:48;;;;;;;53.92;23.00;;;2.10;90.00;;;;;;5094054;28;20057;-74
2021/12/07 14:18:35;;;;;;;48.08;21.95;;;2.10;89.30;;;;;;5094990;28;20024;-77
2021/12/07 14:21:02;;;;;;;46.38;21.95;;;2.10;90.00;;;;;;5096315;28;20028;-81
2021/12/07 14:23:33;;;;;;;52.55;22.55;;;2.10;89.90;;;;;;5094844;28;20377;-77
2021/12/07 14:26:11;;;;;;;53.53;23.02;;;2.10;89.70;;;;;;5093709;28;20024;-75
2021/12/07 14:28:41;;;;;;;47.03;22.90;;;2.10;89.60;;;;;;5093406;28;20024;-74
2021/12/07 14:31:18;;;;;;;49.92;23.17;;;2.10;89.80;;;;;;5094600;28;20017;-76
2021/12/07 14:33:50;;;;;;;40.00;19.48;;;2.10;90.00;;;;;;5093311;28;20020;-77
2021/12/07 14:36:24;;;;;;;39.33;18.60;;;2.10;90.20;;;;;;5095248;28;20031;-79
2021/12/07 14:38:52;;;;;;;49.28;22.15;;;2.10;88.50;;;;;;5093191;28;20028;-78
2021/12/07 14:41:21;;;;;;;48.13;24.17;;;2.10;88.50;;;;;;5093131;28;20035;-79
2021/12/07 14:43:50;;;;;;;55.08;24.63;;;2.10;89.30;;;;;;5075280;28;20497;-81
2021/12/07 14:46:22;;;;;;;57.53;25.05;;;2.00;89.90;;;;;;5095553;28;20035;-80
2021/12/07 14:48:54;;;;;;;58.42;26.08;;;2.00;90.40;;;;;;5095563;28;20028;-81
2021/12/07 14:51:30;;;;;;;;;;;2.10;90.60;;;;;;5094109;28;20020;-74
2021/12/07 14:53:59;;;;;;;65.22;28.10;;;2.00;90.60;;;;;;5094312;28;20237;-75
2021/12/07 14:56:28;;;;;;;68.90;29.52;;;2.00;91.00;;;;;;5092944;28;20035;-74
2021/12/07 14:58:58;;;;;;;62.00;29.05;;;2.00;91.00;;;;;;5093494;28;20500;-75
2021/12/07 15:01:32;;;;;;;65.57;28.65;;;2.10;91.10;;;;;;5094567;28;20024;-75